createdAt,value
2023-05-02T00:01:41.247Z,100.00
2023-05-02T00:06:43.003Z,100.00
2023-05-02T00:11:44.711Z,100.00
2023-05-02T00:16:46.397Z,100.00
2023-05-02T00:21:49.114Z,100.00
2023-05-02T00:26:50.533Z,100.00
2023-05-02T00:31:55.558Z,100.00
2023-05-02T00:36:57.340Z,100.00
2023-05-02T00:41:59.482Z,100.00
2023-05-02T00:47:01.862Z,100.00
2023-05-02T00:52:03.397Z,100.00
2023-05-02T00:57:04.952Z,100.00
2023-05-02T01:02:15.778Z,100.00
2023-05-02T01:07:47.052Z,100.00
2023-05-02T01:12:58.882Z,100.00
2023-05-02T01:18:03.272Z,100.00
2023-05-02T01:23:14.272Z,100.00
2023-05-02T01:28:38.623Z,100.00
2023-05-02T01:33:40.540Z,100.00
2023-05-02T01:38:44.056Z,100.00
2023-05-02T01:43:47.137Z,100.00
2023-05-02T01:48:50.864Z,100.00
2023-05-02T01:53:53.791Z,100.00
2023-05-02T01:58:56.703Z,100.00
2023-05-02T02:04:00.783Z,100.00
2023-05-02T02:09:03.701Z,100.00
2023-05-02T02:14:12.414Z,100.00
2023-05-02T02:19:15.834Z,100.00
2023-05-02T02:24:21.008Z,100.00
2023-05-02T02:29:22.515Z,100.00
2023-05-02T02:34:24.055Z,100.00
2023-05-02T02:39:46.991Z,100.00
2023-05-02T02:45:26.193Z,100.00
2023-05-02T02:50:32.752Z,100.00
2023-05-02T02:55:37.574Z,100.00
2023-05-02T03:00:39.729Z,100.00
2023-05-02T03:05:43.888Z,100.00
2023-05-02T03:10:45.386Z,100.00
2023-05-02T03:15:53.805Z,100.00
2023-05-02T03:20:55.605Z,100.00
2023-05-02T03:25:57.180Z,100.00
2023-05-02T03:30:58.724Z,100.00
2023-05-02T03:36:00.215Z,100.00
2023-05-02T03:41:01.662Z,100.00
2023-05-02T03:46:08.188Z,100.00
2023-05-02T03:51:10.133Z,100.00
2023-05-02T03:56:11.713Z,100.00
2023-05-02T04:01:17.078Z,100.00
2023-05-02T04:06:18.753Z,100.00
2023-05-02T04:11:20.419Z,100.00
2023-05-02T04:16:22.424Z,100.00
2023-05-02T04:21:24.029Z,100.00
2023-05-02T04:26:25.824Z,100.00
2023-05-02T04:31:27.502Z,100.00
2023-05-02T04:36:29.053Z,100.00
2023-05-02T04:41:30.542Z,100.00
2023-05-02T04:46:32.122Z,100.00
2023-05-02T04:51:33.606Z,100.00
2023-05-02T04:56:34.988Z,100.00
2023-05-02T05:01:36.561Z,100.00
2023-05-02T05:06:38.269Z,100.00
2023-05-02T05:11:39.817Z,100.00
2023-05-02T05:16:41.288Z,100.00
2023-05-02T05:21:42.843Z,100.00
2023-05-02T05:26:44.565Z,100.00
2023-05-02T05:31:46.130Z,100.00
2023-05-02T05:36:47.658Z,100.00
2023-05-02T05:41:49.133Z,100.00
2023-05-02T05:46:50.568Z,100.00
2023-05-02T05:51:52.357Z,100.00
2023-05-02T05:56:54.450Z,100.00
2023-05-02T06:01:55.849Z,100.00
2023-05-02T06:06:57.336Z,100.00
2023-05-02T06:11:58.826Z,100.00
2023-05-02T06:17:00.819Z,100.00
2023-05-02T06:22:02.337Z,100.00
2023-05-02T06:27:03.784Z,100.00
2023-05-02T06:32:06.578Z,100.00
2023-05-02T06:37:08.281Z,100.00
2023-05-02T06:42:09.722Z,100.00
2023-05-02T06:47:11.467Z,100.00
2023-05-02T06:52:12.961Z,100.00
2023-05-02T06:57:14.395Z,100.00
2023-05-02T07:02:15.899Z,100.00
2023-05-02T07:07:18.963Z,100.00
2023-05-02T07:12:20.826Z,100.00
2023-05-02T07:17:22.388Z,100.00
2023-05-02T07:22:23.860Z,100.00
2023-05-02T07:27:25.516Z,100.00
2023-05-02T07:32:27.578Z,100.00
2023-05-02T07:37:34.605Z,100.00
2023-05-02T07:42:36.367Z,100.00
2023-05-02T07:47:37.938Z,100.00
2023-05-02T07:52:39.452Z,100.00
2023-05-02T07:57:41.164Z,100.00
2023-05-02T08:02:42.985Z,100.00
2023-05-02T08:07:44.550Z,100.00
2023-05-02T08:12:46.007Z,100.00
2023-05-02T08:17:47.482Z,100.00
2023-05-02T08:22:49.238Z,100.00
2023-05-02T08:27:50.722Z,100.00
2023-05-02T08:32:52.184Z,100.00
2023-05-02T08:37:53.678Z,100.00
2023-05-02T08:42:55.846Z,100.00
2023-05-02T08:47:58.514Z,100.00
2023-05-02T08:53:00.170Z,100.00
2023-05-02T08:58:03.182Z,100.00
2023-05-02T09:03:40.356Z,100.00
2023-05-02T09:08:43.098Z,100.00
2023-05-02T09:13:48.313Z,100.00
2023-05-02T09:18:55.320Z,100.00
2023-05-02T09:23:59.267Z,100.00
2023-05-02T09:29:03.136Z,100.00
2023-05-02T09:34:17.892Z,100.00
2023-05-02T09:39:29.271Z,100.00
2023-05-02T09:44:38.290Z,100.00
2023-05-02T09:49:42.627Z,100.00
2023-05-02T09:54:46.515Z,100.00
2023-05-02T09:59:56.207Z,100.00
2023-05-02T10:04:59.008Z,100.00
2023-05-02T10:10:01.757Z,100.00
2023-05-02T10:15:04.459Z,100.00
2023-05-02T10:20:07.898Z,100.00
2023-05-02T10:25:10.108Z,100.00
2023-05-02T10:30:13.189Z,100.00
2023-05-02T10:35:16.113Z,100.00
2023-05-02T10:40:18.394Z,100.00
2023-05-02T10:45:36.014Z,100.00
2023-05-02T10:50:51.300Z,100.00
2023-05-02T10:56:21.723Z,100.00
2023-05-02T11:01:29.391Z,100.00
2023-05-02T11:06:34.313Z,100.00
2023-05-02T11:11:45.483Z,100.00
2023-05-02T11:17:02.116Z,98.87
2023-05-02T11:22:27.117Z,100.00
2023-05-02T11:27:31.733Z,100.00
2023-05-02T11:32:45.925Z,98.07
2023-05-02T11:37:54.849Z,100.00
2023-05-02T11:42:58.023Z,98.11
2023-05-02T11:47:59.573Z,97.04
2023-05-02T11:53:01.363Z,98.72
2023-05-02T11:58:02.839Z,97.11
2023-05-02T12:03:04.465Z,95.61
2023-05-02T12:08:05.940Z,91.89
2023-05-02T12:13:08.847Z,94.95
2023-05-02T12:18:12.801Z,94.21
2023-05-02T12:23:14.518Z,91.42
2023-05-02T12:28:19.639Z,91.30
2023-05-02T12:33:21.327Z,92.77
2023-05-02T12:38:23.460Z,92.54
2023-05-02T12:43:24.965Z,93.60
2023-05-02T12:48:28.025Z,92.67
2023-05-02T12:53:43.769Z,94.55
2023-05-02T12:58:47.910Z,93.54
2023-05-02T13:03:51.218Z,91.84
2023-05-02T13:08:52.873Z,90.70
2023-05-02T13:13:54.313Z,91.70
2023-05-02T13:18:55.847Z,93.25
2023-05-02T13:23:58.700Z,89.55
2023-05-02T13:29:00.152Z,91.19
2023-05-02T13:34:01.854Z,90.91
2023-05-02T13:39:04.350Z,91.03
2023-05-02T13:44:05.880Z,92.55
2023-05-02T13:49:07.349Z,91.13
2023-05-02T13:54:08.827Z,94.09
2023-05-02T13:59:11.118Z,95.29
2023-05-02T14:04:13.042Z,93.55
2023-05-02T14:09:15.643Z,95.62
2023-05-02T14:14:17.264Z,95.07
2023-05-02T14:19:18.955Z,95.00
2023-05-02T14:24:20.671Z,94.83
2023-05-02T14:29:22.197Z,95.62
2023-05-02T14:34:26.843Z,98.06
2023-05-02T14:39:28.297Z,96.72
2023-05-02T14:44:30.583Z,100.00
2023-05-02T14:49:31.981Z,99.13
2023-05-02T14:54:33.439Z,100.00
2023-05-02T14:59:36.080Z,100.00
2023-05-02T15:04:37.923Z,100.00
2023-05-02T15:09:39.444Z,100.00
2023-05-02T15:14:40.965Z,100.00
2023-05-02T15:19:42.480Z,100.00
2023-05-02T15:24:44.178Z,100.00
2023-05-02T15:29:45.733Z,100.00
2023-05-02T15:34:47.346Z,100.00
2023-05-02T15:39:50.596Z,100.00
2023-05-02T15:44:54.010Z,100.00
2023-05-02T15:49:55.903Z,100.00
2023-05-02T15:54:58.703Z,100.00
2023-05-02T16:00:00.284Z,100.00
2023-05-02T16:05:01.883Z,100.00
2023-05-02T16:10:03.533Z,100.00
2023-05-02T16:15:06.268Z,100.00
2023-05-02T16:20:08.067Z,100.00
2023-05-02T16:25:09.648Z,100.00
2023-05-02T16:30:11.403Z,100.00
2023-05-02T16:35:13.423Z,100.00
2023-05-02T16:40:15.026Z,100.00
2023-05-02T16:45:16.480Z,100.00
2023-05-02T16:50:17.948Z,100.00
2023-05-02T16:55:19.803Z,100.00
2023-05-02T17:00:21.699Z,100.00
2023-05-02T17:05:23.207Z,100.00
2023-05-02T17:10:24.811Z,100.00
2023-05-02T17:15:26.442Z,100.00
2023-05-02T17:20:27.905Z,100.00
2023-05-02T17:25:30.472Z,100.00
2023-05-02T17:30:32.152Z,100.00
2023-05-02T17:35:34.805Z,100.00
2023-05-02T17:40:38.132Z,100.00
2023-05-02T17:45:41.536Z,100.00
2023-05-02T17:50:43.167Z,100.00
2023-05-02T17:55:44.632Z,100.00
2023-05-02T18:00:46.183Z,100.00
2023-05-02T18:05:47.916Z,100.00
2023-05-02T18:10:49.576Z,100.00
2023-05-02T18:16:01.513Z,100.00
2023-05-02T18:21:03.613Z,100.00
2023-05-02T18:26:11.644Z,100.00
2023-05-02T18:31:20.208Z,100.00
2023-05-02T18:36:27.223Z,100.00
2023-05-02T18:41:28.879Z,100.00
2023-05-02T18:46:30.386Z,100.00
2023-05-02T18:51:31.914Z,100.00
2023-05-02T18:56:36.793Z,100.00
2023-05-02T19:01:38.321Z,100.00
2023-05-02T19:06:40.786Z,100.00
2023-05-02T19:11:42.720Z,100.00
2023-05-02T19:16:44.887Z,100.00
2023-05-02T19:21:48.028Z,100.00
2023-05-02T19:26:49.472Z,100.00
2023-05-02T19:31:51.066Z,100.00
2023-05-02T19:36:52.496Z,100.00
2023-05-02T19:41:53.966Z,100.00
2023-05-02T19:46:55.435Z,100.00
2023-05-02T19:51:56.866Z,100.00
2023-05-02T19:56:58.234Z,100.00
2023-05-02T20:01:59.649Z,100.00
2023-05-02T20:07:01.343Z,100.00
2023-05-02T20:12:03.370Z,100.00
2023-05-02T20:17:05.358Z,100.00
2023-05-02T20:22:06.880Z,100.00
2023-05-02T20:27:08.347Z,100.00
2023-05-02T20:32:09.846Z,100.00
2023-05-02T20:37:12.444Z,100.00
2023-05-02T20:42:15.577Z,100.00
2023-05-02T20:47:17.076Z,100.00
2023-05-02T20:52:18.860Z,100.00
2023-05-02T20:57:20.383Z,100.00
2023-05-02T21:02:22.245Z,100.00
2023-05-02T21:07:23.671Z,100.00
2023-05-02T21:12:25.087Z,100.00
2023-05-02T21:17:26.524Z,100.00
2023-05-02T21:22:27.993Z,100.00
2023-05-02T21:27:29.425Z,100.00
2023-05-02T21:32:30.969Z,100.00
2023-05-02T21:37:32.598Z,100.00
2023-05-02T21:42:34.744Z,100.00
2023-05-02T21:47:36.233Z,100.00
2023-05-02T21:52:37.611Z,100.00
2023-05-02T21:57:40.794Z,100.00
2023-05-02T22:02:42.276Z,100.00
2023-05-02T22:07:43.806Z,100.00
2023-05-02T22:12:46.408Z,100.00
2023-05-02T22:17:48.357Z,100.00
2023-05-02T22:22:49.857Z,100.00
2023-05-02T22:27:52.114Z,100.00
2023-05-02T22:32:53.733Z,100.00
2023-05-02T22:37:55.696Z,100.00
2023-05-02T22:42:57.849Z,100.00
2023-05-02T22:47:59.375Z,100.00
2023-05-02T22:53:03.754Z,100.00
2023-05-02T22:58:05.788Z,100.00
2023-05-02T23:03:07.281Z,100.00
2023-05-02T23:08:08.748Z,100.00
2023-05-02T23:13:10.201Z,100.00
2023-05-02T23:18:11.680Z,100.00
2023-05-02T23:23:13.132Z,100.00
2023-05-02T23:28:14.622Z,100.00
2023-05-02T23:33:16.393Z,100.00
2023-05-02T23:38:18.083Z,100.00
2023-05-02T23:43:21.077Z,100.00
2023-05-02T23:48:22.600Z,100.00
2023-05-02T23:53:24.107Z,100.00
2023-05-02T23:58:25.545Z,100.00
